Station: King Island Airport  

  Atmospheric Gas Attenuation - ITU Rec 676-11   ----------------- dB/100km -----------------
Date Time Temp RH % AH g/m3 Dew Point Wind Direction Speed kph Gust kph Barometer mB Rainfall Since 9am 24GHz 47GHz 76GHz 122GHz 134GHz 241GHz
08/05 12:30 14.1 73 8.86 9.3 35 50 1022.6 0.2 20.1 26.6 41.1 107.8 102.2 351.9
08/05 12:20 14.5 72 8.96 9.5 28 32 1022.6 0.2 20.3 26.6 41.3 108.4 103.0 354.8
08/05 12:10 14.2 69 8.43 8.6 33 39 1022.7 0.2 19.2 25.9 39.3 103.1 96.4 331.5
08/05 12:00 13.9 71 8.51 8.7 33 46 1022.6 0.2 19.4 26.1 39.8 104.3 97.8 336.5
08/05 11:50 14.1 72 8.74 9.1 32 41 1022.6 0.2 19.9 26.4 40.6 106.5 100.6 346.3
08/05 11:40 13.3 80 9.24 9.9 22 26 1022.7 0.2 21.0 27.5 43.1 113.1 108.5 373.6
08/05 11:30 13.7 76 9 9.6 30 43 1022.6 0.2 20.4 26.9 41.9 109.9 104.7 360.3
08/05 11:20 13.2 78 8.96 9.5 26 33 1022.6 0.2 20.4 27.0 42.0 110.2 104.8 360.7
08/05 11:10 13.9 73 8.75 9.1 26 28 1022.5 0.2 19.9 26.5 40.8 106.9 101.0 347.6
08/05 11:00 13.9 74 8.87 9.3 30 43 1022.4 0.2 20.2 26.7 41.3 108.2 102.6 353.2
08/05 10:50 13.7 74 8.76 9.2 28 33 1022.3 0.2 19.9 26.5 40.9 107.3 101.4 348.9
08/05 10:40 13.6 72 8.47 8.7 44 48 1022.1 0.2 19.3 26.1 39.8 104.2 97.7 335.8
08/05 10:30 13.3 76 8.78 9.2 28 43 1022.1 0.2 20.0 26.7 41.2 108.0 102.2 351.6
08/05 10:20 13.4 74 8.6 8.9 35 41 1021.9 0.2 19.6 26.3 40.4 105.9 99.6 342.6
08/05 10:10 13.5 75 8.77 9.2 35 39 1021.8 0.2 20.0 26.6 41.0 107.6 101.8 350.1
08/05 10:00 13.3 76 8.78 9.2 30 44 1021.7 0.2 20.0 26.7 41.2 108.0 102.1 351.5
08/05 09:50 13.1 78 8.9 9.4 35 39 1021.7 0.2 20.3 26.9 41.8 109.6 104.0 358.0
08/05 09:40 12.8 80 8.96 9.4 33 46 1021.5 0.2 20.4 27.1 42.2 110.6 105.2 362.2
08/05 09:30 12.3 87 9.45 10.2 33 44 1021.4 0.2 21.5 28.1 44.5 116.8 112.7 388.3
08/05 09:20 12.3 83 9.01 9.5 43 52 1021.6 0 20.5 27.3 42.6 111.9 106.6 367.0
08/05 09:10 13.3 78 9.01 9.5 32 37 1021.2 0 20.5 27.0 42.1 110.4 105.2 362.2
08/05 09:00 12.7 84 9.35 10.1 35 50 1020.9 0 21.2 27.8 43.8 115.1 110.7 381.3
08/05 08:50 13.3 76 8.78 9.2 35 44 1020.9 4.6 20.0 26.6 41.1 107.9 102.1 351.2
08/05 08:40 13.2 76 8.73 9.1 35 41 1020.7 4.6 19.9 26.6 41.0 107.5 101.5 349.3
08/05 08:30 13.4 72 8.37 8.5 37 54 1020.3 4.6 19.1 25.9 39.4 103.2 96.4 331.5
08/05 08:20 13.5 71 8.31 8.4 43 48 1020.2 4.6 19.0 25.8 39.1 102.5 95.5 328.3
08/05 08:10 13.4 73 8.49 8.7 37 43 1020.1 4.6 19.4 26.1 39.9 104.5 98.0 337.0
08/05 08:00 13.2 77 8.84 9.3 39 54 1019.7 4.6 20.1 26.7 41.4 108.5 102.9 354.2
08/05 07:50 13.6 73 8.59 8.9 37 43 1019.5 4.6 19.6 26.2 40.1 105.3 99.0 340.6
08/05 07:40 13.4 72 8.37 8.5 32 37 1019.3 4.6 19.1 25.9 39.3 103.1 96.4 331.2
08/05 07:30 13.5 70 8.19 8.1 44 57 1018.8 4.6 18.7 25.5 38.6 101.0 93.8 322.4
08/05 07:20 13.4 70 8.14 8 41 46 1018.8 4.6 18.6 25.5 38.4 100.6 93.3 320.5
08/05 07:10 13.4 71 8.25 8.3 37 52 1018.7 4.6 18.9 25.6 38.8 101.8 94.7 325.5
08/05 07:00 13.6 72 8.47 8.7 41 54 1018.6 4.6 19.3 25.9 39.6 103.9 97.4 334.8
08/05 06:50 13.4 70 8.14 8 39 50 1018.5 4.6 18.6 25.5 38.4 100.6 93.3 320.4
08/05 06:40 13.4 71 8.25 8.3 46 54 1018.5 4.6 18.9 25.6 38.8 101.8 94.7 325.4
08/05 06:30 13.4 71 8.25 8.3 46 61 1018.4 4.6 18.9 25.6 38.8 101.8 94.7 325.4
08/05 06:20 13.4 69 8.02 7.8 50 61 1018.5 4.6 18.4 25.3 37.9 99.3 91.7 314.9
08/05 06:10 13.4 71 8.25 8.3 46 52 1018.4 4.6 18.9 25.6 38.8 101.8 94.7 325.4
08/05 06:00 13.4 71 8.25 8.3 46 65 1018.1 4.6 18.9 25.6 38.8 101.7 94.7 325.3
08/05 05:50 13.4 71 8.25 8.3 44 56 1018.1 4.6 18.9 25.6 38.8 101.7 94.7 325.3
08/05 05:40 13.4 72 8.37 8.5 43 50 1018 4.6 19.1 25.8 39.3 103.0 96.2 330.9
08/05 05:30 13.4 72 8.37 8.5 50 69 1017.8 4.6 19.1 25.8 39.3 103.0 96.2 330.8
08/05 05:20 13.4 74 8.6 8.9 44 61 1017.7 4.6 19.6 26.2 40.2 105.5 99.3 341.5
08/05 05:10 13.4 79 9.18 9.8 46 56 1017.5 4.6 20.8 27.1 42.6 111.8 107.1 368.7
08/05 05:00 13.1 82 9.36 10.1 41 54 1017.3 4.6 21.2 27.5 43.5 114.2 109.9 378.7
08/05 04:50 13.4 78 9.07 9.6 46 59 1017.2 4.6 20.6 26.9 42.1 110.5 105.5 363.4
08/05 04:40 12.9 78 8.79 9.2 37 52 1017.2 4.6 20.0 26.6 41.2 108.1 102.4 352.4
08/05 04:30 13 77 8.73 9.1 48 67 1016.9 4.6 19.9 26.5 40.9 107.3 101.5 349.1
08/05 04:20 13.1 80 9.13 9.7 44 54 1017 4.6 20.8 27.1 42.5 111.6 106.8 367.6
08/05 04:10 12.8 79 8.85 9.3 50 57 1017.1 4.6 20.2 26.7 41.5 108.9 103.4 355.7
08/05 04:00 13.5 78 9.12 9.7 50 63 1017 4.6 20.7 27.0 42.2 110.9 106.1 365.3
08/05 03:50 13.2 79 9.07 9.6 46 57 1017.1 4.6 20.6 27.0 42.2 110.8 105.8 364.3
08/05 03:40 13.3 82 9.47 10.3 43 59 1017 4.6 21.5 27.6 43.8 115.1 111.1 382.9
08/05 03:30 12.9 83 9.36 10.1 48 67 1016.9 4.6 21.3 27.6 43.6 114.4 110.2 379.6
08/05 03:20 13.2 80 9.19 9.8 52 61 1017 4.6 20.9 27.2 42.7 112.1 107.4 370.0
08/05 03:10 13.3 83 9.59 10.5 46 56 1016.9 4.6 21.7 27.8 44.3 116.4 112.8 388.7
08/05 03:00 13.3 84 9.71 10.7 46 61 1016.8 4.6 22.0 28.0 44.8 117.7 114.4 394.5
08/05 02:50 12.8 85 9.52 10.3 46 52 1017 4.6 21.6 27.9 44.3 116.4 112.6 387.8
08/05 02:40 12.9 84 9.47 10.3 61 69 1017 4.6 21.5 27.8 44.0 115.7 111.7 384.9
08/05 02:30 12.8 86 9.63 10.5 50 65 1017 4.6 21.8 28.1 44.8 117.6 114.1 393.2
08/05 02:20 13.3 82 9.47 10.3 48 59 1017 4.6 21.5 27.6 43.8 115.1 111.1 382.9
08/05 02:10 13.1 83 9.47 10.3 54 69 1017 4.6 21.5 27.7 43.9 115.4 111.4 383.9
08/05 02:00 12.9 87 9.81 10.8 44 59 1016.9 4.6 22.2 28.3 45.5 119.5 116.4 401.4
08/05 01:50 12.9 85 9.58 10.4 50 65 1017 4.6 21.7 27.9 44.5 116.9 113.2 390.2
08/05 01:40 13 85 9.64 10.5 43 52 1017.1 4.6 21.9 28.0 44.7 117.4 113.9 392.7
08/05 01:30 12.9 87 9.81 10.8 44 63 1017.1 4.6 22.2 28.3 45.5 119.5 116.5 401.5
08/05 01:20 13.1 86 9.81 10.8 44 54 1017.3 4.6 22.2 28.3 45.4 119.2 116.2 400.5
08/05 01:10 12.9 88 9.92 11 46 63 1017.5 4.6 22.5 28.5 46.0 120.8 118.0 407.0
08/05 01:00 12.3 90 9.77 10.7 41 56 1017.5 4.6 22.2 28.5 45.7 120.0 116.8 402.8
08/05 00:50 12.3 89 9.67 10.5 41 50 1017.9 4.4 22.0 28.3 45.3 118.9 115.5 398.0
08/05 00:40 12.5 85 9.35 10 48 63 1017.8 4.4 21.3 27.7 43.8 115.0 110.7 381.3
08/05 00:30 12.9 84 9.47 10.3 44 61 1017.8 4.4 21.5 27.8 44.1 115.8 111.8 385.2
08/05 00:20 13.1 83 9.47 10.3 46 54 1017.9 4.4 21.5 27.7 44.0 115.5 111.5 384.2
08/05 00:10 13.2 83 9.53 10.4 41 50 1017.9 4.2 21.6 27.8 44.2 116.0 112.2 386.6
08/05 00:00 13.5 82 9.59 10.5 41 61 1017.7 4.2 21.7 27.8 44.2 116.2 112.6 387.9
07/05 23:50 13.3 84 9.71 10.7 39 44 1017.9 4.2 22.0 28.1 44.9 117.9 114.5 394.8
07/05 23:40 13.1 86 9.81 10.8 33 39 1017.9 4.2 22.2 28.3 45.4 119.3 116.2 400.7
07/05 23:30 12.6 87 9.63 10.5 44 70 1017.9 4.2 21.9 28.2 44.9 118.0 114.5 394.5
07/05 23:20 13.4 82 9.53 10.4 35 46 1017.8 4.2 21.6 27.7 44.0 115.7 111.9 385.6
07/05 23:10 13.2 83 9.53 10.4 44 67 1017.8 4.2 21.6 27.8 44.1 116.0 112.2 386.6
07/05 23:00 13.3 84 9.71 10.7 44 67 1017.8 4.2 22.0 28.1 44.8 117.9 114.5 394.8
07/05 22:50 13.3 85 9.82 10.8 37 48 1018 4.2 22.2 28.3 45.3 119.1 116.1 400.2
07/05 22:40 13.1 89 10.16 11.3 43 56 1018 4.2 23.0 28.9 46.9 123.3 121.2 417.9
07/05 22:30 12.9 88 9.92 11 44 57 1017.8 4.2 22.5 28.6 46.0 120.9 118.1 407.1
07/05 22:20 13.3 86 9.94 11 44 56 1018 4.2 22.5 28.5 45.8 120.5 117.7 406.1
07/05 22:10 12.7 89 9.91 10.9 46 54 1018 4.2 22.4 28.6 46.1 121.1 118.3 407.7
07/05 22:00 12.8 88 9.86 10.9 44 61 1018 4 22.3 28.5 45.8 120.3 117.4 404.7
07/05 21:50 13.6 83 9.77 10.8 44 63 1018.1 4 22.1 28.1 44.9 118.1 114.9 396.3
07/05 21:40 13.4 85 9.88 10.9 37 46 1017.9 4 22.3 28.3 45.5 119.6 116.7 402.6
07/05 21:30 13.2 85 9.76 10.7 43 63 1018.2 4 22.1 28.2 45.1 118.6 115.4 397.8
07/05 21:20 13.4 84 9.77 10.8 43 52 1018.1 4 22.1 28.1 45.1 118.4 115.2 397.3
07/05 21:10 13.2 84 9.65 10.6 44 50 1018.1 4 21.9 28.0 44.7 117.4 113.9 392.5
07/05 21:00 13 86 9.75 10.7 44 61 1018 4 22.1 28.2 45.2 118.8 115.5 398.3
07/05 20:50 12.8 89 9.97 11 43 54 1018.3 4 22.6 28.7 46.3 121.6 119.0 410.3
07/05 20:40 13.1 86 9.81 10.8 43 50 1018.1 4 22.2 28.3 45.4 119.3 116.2 400.8
07/05 20:30 12.5 89 9.79 10.7 46 74 1018.1 4 22.2 28.5 45.7 120.0 116.9 402.9
07/05 20:20 12.6 89 9.85 10.8 37 46 1018.2 4 22.3 28.5 45.9 120.6 117.6 405.4
07/05 20:10 12.1 88 9.44 10.2 50 69 1018.2 3.8 21.5 28.0 44.4 116.7 112.6 387.8
07/05 20:00 12.8 84 9.41 10.2 43 61 1018.1 3.8 21.4 27.7 43.9 115.3 111.1 382.8

Last Refresh: 08-May-2026 12:08:28

Bureau of Meteorology